sensor_id;sensor_type;location;lat;lon;timestamp;temperature;humidity
33023;DHT22;19390;51.460;5.710;2024-02-15T00:02:22;12.40;99.90
33023;DHT22;19390;51.460;5.710;2024-02-15T00:04:48;12.30;99.90
33023;DHT22;19390;51.460;5.710;2024-02-15T00:07:13;12.40;99.90
33023;DHT22;19390;51.460;5.710;2024-02-15T00:09:39;12.40;99.90
33023;DHT22;19390;51.460;5.710;2024-02-15T00:12:05;12.30;99.90
33023;DHT22;19390;51.460;5.710;2024-02-15T00:14:30;12.40;99.90
33023;DHT22;19390;51.460;5.710;2024-02-15T00:16:57;12.40;99.90
33023;DHT22;19390;51.460;5.710;2024-02-15T00:19:23;12.40;99.90
33023;DHT22;19390;51.460;5.710;2024-02-15T00:21:49;12.30;99.90
33023;DHT22;19390;51.460;5.710;2024-02-15T00:24:15;12.40;99.90
33023;DHT22;19390;51.460;5.710;2024-02-15T00:26:41;12.40;99.90
33023;DHT22;19390;51.460;5.710;2024-02-15T00:29:08;12.40;99.90
33023;DHT22;19390;51.460;5.710;2024-02-15T00:31:34;12.30;99.90
33023;DHT22;19390;51.460;5.710;2024-02-15T00:34:01;12.30;99.90
33023;DHT22;19390;51.460;5.710;2024-02-15T00:36:28;12.30;99.90
33023;DHT22;19390;51.460;5.710;2024-02-15T00:38:55;12.30;99.90
33023;DHT22;19390;51.460;5.710;2024-02-15T00:41:21;12.30;99.90
33023;DHT22;19390;51.460;5.710;2024-02-15T00:43:47;12.30;99.90
33023;DHT22;19390;51.460;5.710;2024-02-15T00:46:12;12.30;99.90
33023;DHT22;19390;51.460;5.710;2024-02-15T00:48:38;12.30;99.90
33023;DHT22;19390;51.460;5.710;2024-02-15T00:51:04;12.30;99.90
33023;DHT22;19390;51.460;5.710;2024-02-15T00:53:29;12.30;99.90
33023;DHT22;19390;51.460;5.710;2024-02-15T00:55:55;12.30;99.90
33023;DHT22;19390;51.460;5.710;2024-02-15T00:58:21;12.30;99.90
33023;DHT22;19390;51.460;5.710;2024-02-15T01:00:47;12.30;99.90
33023;DHT22;19390;51.460;5.710;2024-02-15T01:03:13;12.30;99.90
33023;DHT22;19390;51.460;5.710;2024-02-15T01:05:38;12.20;99.90
33023;DHT22;19390;51.460;5.710;2024-02-15T01:08:04;12.30;99.90
33023;DHT22;19390;51.460;5.710;2024-02-15T01:10:30;12.30;99.90
33023;DHT22;19390;51.460;5.710;2024-02-15T01:12:56;12.40;99.90
33023;DHT22;19390;51.460;5.710;2024-02-15T01:15:21;12.40;99.90
33023;DHT22;19390;51.460;5.710;2024-02-15T01:17:47;12.40;99.90
33023;DHT22;19390;51.460;5.710;2024-02-15T01:20:13;12.40;99.90
33023;DHT22;19390;51.460;5.710;2024-02-15T01:22:39;12.40;99.90
33023;DHT22;19390;51.460;5.710;2024-02-15T01:25:04;12.40;99.90
33023;DHT22;19390;51.460;5.710;2024-02-15T01:27:30;12.40;99.90
33023;DHT22;19390;51.460;5.710;2024-02-15T01:29:56;12.40;99.90
33023;DHT22;19390;51.460;5.710;2024-02-15T01:32:22;12.40;99.90
33023;DHT22;19390;51.460;5.710;2024-02-15T01:34:48;12.40;99.90
33023;DHT22;19390;51.460;5.710;2024-02-15T01:37:16;12.40;99.90
33023;DHT22;19390;51.460;5.710;2024-02-15T01:39:41;12.40;99.90
33023;DHT22;19390;51.460;5.710;2024-02-15T01:42:07;12.40;99.90
33023;DHT22;19390;51.460;5.710;2024-02-15T01:44:33;12.30;99.90
33023;DHT22;19390;51.460;5.710;2024-02-15T01:46:59;12.30;99.90
33023;DHT22;19390;51.460;5.710;2024-02-15T01:49:27;12.30;99.90
33023;DHT22;19390;51.460;5.710;2024-02-15T01:51:54;12.30;99.90
33023;DHT22;19390;51.460;5.710;2024-02-15T01:54:22;12.30;99.90
33023;DHT22;19390;51.460;5.710;2024-02-15T01:56:48;12.30;99.90
33023;DHT22;19390;51.460;5.710;2024-02-15T01:59:15;12.20;99.90
33023;DHT22;19390;51.460;5.710;2024-02-15T02:01:42;12.30;99.90
33023;DHT22;19390;51.460;5.710;2024-02-15T02:04:08;12.20;99.90
33023;DHT22;19390;51.460;5.710;2024-02-15T02:06:34;12.30;99.90
33023;DHT22;19390;51.460;5.710;2024-02-15T02:09:00;12.30;99.90
33023;DHT22;19390;51.460;5.710;2024-02-15T02:11:27;12.30;99.90
33023;DHT22;19390;51.460;5.710;2024-02-15T02:13:55;12.30;99.90
33023;DHT22;19390;51.460;5.710;2024-02-15T02:16:30;12.30;99.90
33023;DHT22;19390;51.460;5.710;2024-02-15T02:19:01;12.30;99.90
33023;DHT22;19390;51.460;5.710;2024-02-15T02:21:28;12.30;99.90
33023;DHT22;19390;51.460;5.710;2024-02-15T02:23:56;12.30;99.90
33023;DHT22;19390;51.460;5.710;2024-02-15T02:26:23;12.30;99.90
33023;DHT22;19390;51.460;5.710;2024-02-15T02:28:49;12.30;99.90
33023;DHT22;19390;51.460;5.710;2024-02-15T02:31:15;12.30;99.90
33023;DHT22;19390;51.460;5.710;2024-02-15T02:33:41;12.40;99.90
33023;DHT22;19390;51.460;5.710;2024-02-15T02:36:07;12.40;99.90
33023;DHT22;19390;51.460;5.710;2024-02-15T02:38:35;12.40;99.90
33023;DHT22;19390;51.460;5.710;2024-02-15T02:41:03;12.40;99.90
33023;DHT22;19390;51.460;5.710;2024-02-15T02:43:29;12.30;99.90
33023;DHT22;19390;51.460;5.710;2024-02-15T02:45:55;12.20;99.90
33023;DHT22;19390;51.460;5.710;2024-02-15T02:48:20;12.10;99.90
33023;DHT22;19390;51.460;5.710;2024-02-15T02:50:47;12.10;99.90
33023;DHT22;19390;51.460;5.710;2024-02-15T02:53:13;12.10;99.90
33023;DHT22;19390;51.460;5.710;2024-02-15T02:55:40;12.20;99.90
33023;DHT22;19390;51.460;5.710;2024-02-15T02:58:06;12.10;99.90
33023;DHT22;19390;51.460;5.710;2024-02-15T03:00:33;12.10;99.90
33023;DHT22;19390;51.460;5.710;2024-02-15T03:02:58;12.10;99.90
33023;DHT22;19390;51.460;5.710;2024-02-15T03:05:28;12.00;99.90
33023;DHT22;19390;51.460;5.710;2024-02-15T03:07:54;12.10;99.90
33023;DHT22;19390;51.460;5.710;2024-02-15T03:10:20;12.10;99.90
33023;DHT22;19390;51.460;5.710;2024-02-15T03:12:46;12.10;99.90
33023;DHT22;19390;51.460;5.710;2024-02-15T03:15:15;12.10;99.90
33023;DHT22;19390;51.460;5.710;2024-02-15T03:17:41;12.10;99.90
33023;DHT22;19390;51.460;5.710;2024-02-15T03:20:11;12.00;99.90
33023;DHT22;19390;51.460;5.710;2024-02-15T03:22:50;12.10;99.90
33023;DHT22;19390;51.460;5.710;2024-02-15T03:25:16;12.10;99.90
33023;DHT22;19390;51.460;5.710;2024-02-15T03:27:42;12.10;99.90
33023;DHT22;19390;51.460;5.710;2024-02-15T03:30:08;12.10;99.90
33023;DHT22;19390;51.460;5.710;2024-02-15T03:32:35;12.10;99.90
33023;DHT22;19390;51.460;5.710;2024-02-15T03:35:01;12.20;99.90
33023;DHT22;19390;51.460;5.710;2024-02-15T03:37:27;12.10;99.90
33023;DHT22;19390;51.460;5.710;2024-02-15T03:39:52;12.10;99.90
33023;DHT22;19390;51.460;5.710;2024-02-15T03:42:18;12.10;99.90
33023;DHT22;19390;51.460;5.710;2024-02-15T03:44:43;12.10;99.90
33023;DHT22;19390;51.460;5.710;2024-02-15T03:47:09;12.10;99.90
33023;DHT22;19390;51.460;5.710;2024-02-15T03:49:35;12.20;99.90
33023;DHT22;19390;51.460;5.710;2024-02-15T03:52:00;12.20;99.90
33023;DHT22;19390;51.460;5.710;2024-02-15T03:54:26;12.20;99.90
33023;DHT22;19390;51.460;5.710;2024-02-15T03:56:51;12.20;99.90
33023;DHT22;19390;51.460;5.710;2024-02-15T03:59:19;12.30;99.90
33023;DHT22;19390;51.460;5.710;2024-02-15T04:01:50;12.30;99.90
33023;DHT22;19390;51.460;5.710;2024-02-15T04:04:16;12.30;99.90
33023;DHT22;19390;51.460;5.710;2024-02-15T04:06:41;12.20;99.90
33023;DHT22;19390;51.460;5.710;2024-02-15T04:09:08;12.20;99.90
33023;DHT22;19390;51.460;5.710;2024-02-15T04:11:36;12.20;99.90
33023;DHT22;19390;51.460;5.710;2024-02-15T04:14:03;12.20;99.90
33023;DHT22;19390;51.460;5.710;2024-02-15T04:16:29;12.20;99.90
33023;DHT22;19390;51.460;5.710;2024-02-15T04:18:56;12.30;99.90
33023;DHT22;19390;51.460;5.710;2024-02-15T04:21:25;12.30;99.90
33023;DHT22;19390;51.460;5.710;2024-02-15T04:23:53;12.30;99.90
33023;DHT22;19390;51.460;5.710;2024-02-15T04:26:19;12.30;99.90
33023;DHT22;19390;51.460;5.710;2024-02-15T04:28:45;12.30;99.90
33023;DHT22;19390;51.460;5.710;2024-02-15T04:31:18;12.30;99.90
33023;DHT22;19390;51.460;5.710;2024-02-15T04:33:43;12.30;99.90
33023;DHT22;19390;51.460;5.710;2024-02-15T04:36:09;12.30;99.90
33023;DHT22;19390;51.460;5.710;2024-02-15T04:38:34;12.30;99.90
33023;DHT22;19390;51.460;5.710;2024-02-15T04:41:03;12.30;99.90
33023;DHT22;19390;51.460;5.710;2024-02-15T04:43:35;12.30;99.90
33023;DHT22;19390;51.460;5.710;2024-02-15T04:46:03;12.30;99.90
33023;DHT22;19390;51.460;5.710;2024-02-15T04:48:33;12.40;99.90
33023;DHT22;19390;51.460;5.710;2024-02-15T04:50:59;12.30;99.90
33023;DHT22;19390;51.460;5.710;2024-02-15T04:53:26;12.30;99.90
33023;DHT22;19390;51.460;5.710;2024-02-15T04:55:55;12.20;99.90
33023;DHT22;19390;51.460;5.710;2024-02-15T04:58:21;12.20;99.90
33023;DHT22;19390;51.460;5.710;2024-02-15T05:00:46;12.30;99.90
33023;DHT22;19390;51.460;5.710;2024-02-15T05:03:14;12.20;99.90
33023;DHT22;19390;51.460;5.710;2024-02-15T05:05:39;12.20;99.90
33023;DHT22;19390;51.460;5.710;2024-02-15T05:08:05;12.20;99.90
33023;DHT22;19390;51.460;5.710;2024-02-15T05:10:31;12.20;99.90
33023;DHT22;19390;51.460;5.710;2024-02-15T05:12:56;12.20;99.90
33023;DHT22;19390;51.460;5.710;2024-02-15T05:15:22;12.20;99.90
33023;DHT22;19390;51.460;5.710;2024-02-15T05:17:50;12.20;99.90
33023;DHT22;19390;51.460;5.710;2024-02-15T05:20:15;12.20;99.90
33023;DHT22;19390;51.460;5.710;2024-02-15T05:22:41;12.30;99.90
33023;DHT22;19390;51.460;5.710;2024-02-15T05:25:13;12.20;99.90
33023;DHT22;19390;51.460;5.710;2024-02-15T05:27:41;12.20;99.90
33023;DHT22;19390;51.460;5.710;2024-02-15T05:30:08;12.30;99.90
33023;DHT22;19390;51.460;5.710;2024-02-15T05:32:34;12.20;99.90
33023;DHT22;19390;51.460;5.710;2024-02-15T05:35:09;12.20;99.90
33023;DHT22;19390;51.460;5.710;2024-02-15T05:37:35;12.20;99.90
33023;DHT22;19390;51.460;5.710;2024-02-15T05:40:01;12.20;99.90
33023;DHT22;19390;51.460;5.710;2024-02-15T05:42:27;12.20;99.90
33023;DHT22;19390;51.460;5.710;2024-02-15T05:44:52;12.20;99.90
33023;DHT22;19390;51.460;5.710;2024-02-15T05:47:18;12.20;99.90
33023;DHT22;19390;51.460;5.710;2024-02-15T05:49:45;12.20;99.90
33023;DHT22;19390;51.460;5.710;2024-02-15T05:52:12;12.20;99.90
33023;DHT22;19390;51.460;5.710;2024-02-15T05:54:38;12.30;99.90
33023;DHT22;19390;51.460;5.710;2024-02-15T05:57:04;12.30;99.90
33023;DHT22;19390;51.460;5.710;2024-02-15T05:59:30;12.30;99.90
33023;DHT22;19390;51.460;5.710;2024-02-15T06:01:56;12.30;99.90
33023;DHT22;19390;51.460;5.710;2024-02-15T06:04:22;12.30;99.90
33023;DHT22;19390;51.460;5.710;2024-02-15T06:06:50;12.10;99.90
33023;DHT22;19390;51.460;5.710;2024-02-15T06:09:17;12.10;99.90
33023;DHT22;19390;51.460;5.710;2024-02-15T06:11:42;12.00;99.90
33023;DHT22;19390;51.460;5.710;2024-02-15T06:14:10;11.90;99.90
33023;DHT22;19390;51.460;5.710;2024-02-15T06:16:43;11.90;99.90
33023;DHT22;19390;51.460;5.710;2024-02-15T06:19:09;11.90;99.90
33023;DHT22;19390;51.460;5.710;2024-02-15T06:21:34;11.90;99.90
33023;DHT22;19390;51.460;5.710;2024-02-15T06:24:00;11.90;99.90
33023;DHT22;19390;51.460;5.710;2024-02-15T06:26:25;11.90;99.90
33023;DHT22;19390;51.460;5.710;2024-02-15T06:28:51;11.90;99.90
33023;DHT22;19390;51.460;5.710;2024-02-15T06:31:35;11.80;99.90
33023;DHT22;19390;51.460;5.710;2024-02-15T06:34:19;11.90;99.90
33023;DHT22;19390;51.460;5.710;2024-02-15T06:37:03;11.80;99.90
33023;DHT22;19390;51.460;5.710;2024-02-15T06:39:47;11.80;99.90
33023;DHT22;19390;51.460;5.710;2024-02-15T06:42:15;11.80;99.90
33023;DHT22;19390;51.460;5.710;2024-02-15T06:44:46;11.80;99.90
33023;DHT22;19390;51.460;5.710;2024-02-15T06:47:12;11.80;99.90
33023;DHT22;19390;51.460;5.710;2024-02-15T06:49:41;11.80;99.90
33023;DHT22;19390;51.460;5.710;2024-02-15T06:52:10;11.90;99.90
33023;DHT22;19390;51.460;5.710;2024-02-15T06:54:40;11.90;99.90
33023;DHT22;19390;51.460;5.710;2024-02-15T06:57:06;11.90;99.90
33023;DHT22;19390;51.460;5.710;2024-02-15T06:59:32;11.90;99.90
33023;DHT22;19390;51.460;5.710;2024-02-15T07:01:59;11.90;99.90
33023;DHT22;19390;51.460;5.710;2024-02-15T07:04:25;11.90;99.90
33023;DHT22;19390;51.460;5.710;2024-02-15T07:06:51;12.00;99.90
33023;DHT22;19390;51.460;5.710;2024-02-15T07:09:20;11.90;99.90
33023;DHT22;19390;51.460;5.710;2024-02-15T07:11:45;11.90;99.90
33023;DHT22;19390;51.460;5.710;2024-02-15T07:14:14;12.00;99.90
33023;DHT22;19390;51.460;5.710;2024-02-15T07:16:44;12.00;99.90
33023;DHT22;19390;51.460;5.710;2024-02-15T07:19:10;12.00;99.90
33023;DHT22;19390;51.460;5.710;2024-02-15T07:21:35;11.90;99.90
33023;DHT22;19390;51.460;5.710;2024-02-15T07:24:01;12.00;99.90
33023;DHT22;19390;51.460;5.710;2024-02-15T07:26:27;12.00;99.90
33023;DHT22;19390;51.460;5.710;2024-02-15T07:28:54;12.00;99.90
33023;DHT22;19390;51.460;5.710;2024-02-15T07:31:20;12.10;99.90
33023;DHT22;19390;51.460;5.710;2024-02-15T07:33:50;12.10;99.90
33023;DHT22;19390;51.460;5.710;2024-02-15T07:36:20;12.20;99.90
33023;DHT22;19390;51.460;5.710;2024-02-15T07:38:53;12.10;99.90
33023;DHT22;19390;51.460;5.710;2024-02-15T07:41:22;12.20;99.90
33023;DHT22;19390;51.460;5.710;2024-02-15T07:43:49;12.20;99.90
33023;DHT22;19390;51.460;5.710;2024-02-15T07:46:16;12.20;99.90
33023;DHT22;19390;51.460;5.710;2024-02-15T07:48:45;12.20;99.90
33023;DHT22;19390;51.460;5.710;2024-02-15T07:51:15;12.20;99.90
33023;DHT22;19390;51.460;5.710;2024-02-15T07:53:42;12.20;99.90
33023;DHT22;19390;51.460;5.710;2024-02-15T07:56:08;12.10;99.90
33023;DHT22;19390;51.460;5.710;2024-02-15T07:58:38;12.10;99.90
33023;DHT22;19390;51.460;5.710;2024-02-15T08:01:04;12.10;99.90
33023;DHT22;19390;51.460;5.710;2024-02-15T08:03:30;12.00;99.90
33023;DHT22;19390;51.460;5.710;2024-02-15T08:05:56;12.00;99.90
33023;DHT22;19390;51.460;5.710;2024-02-15T08:08:22;12.00;99.90
33023;DHT22;19390;51.460;5.710;2024-02-15T08:10:47;12.00;99.90
33023;DHT22;19390;51.460;5.710;2024-02-15T08:13:16;12.10;99.90
33023;DHT22;19390;51.460;5.710;2024-02-15T08:15:43;12.10;99.90
33023;DHT22;19390;51.460;5.710;2024-02-15T08:18:10;12.10;99.90
33023;DHT22;19390;51.460;5.710;2024-02-15T08:20:38;12.20;99.90
33023;DHT22;19390;51.460;5.710;2024-02-15T08:23:06;12.20;99.90
33023;DHT22;19390;51.460;5.710;2024-02-15T08:25:31;12.30;99.90
33023;DHT22;19390;51.460;5.710;2024-02-15T08:27:57;12.30;99.90
33023;DHT22;19390;51.460;5.710;2024-02-15T08:30:23;12.40;99.90
33023;DHT22;19390;51.460;5.710;2024-02-15T08:32:48;12.40;99.90
33023;DHT22;19390;51.460;5.710;2024-02-15T08:35:14;12.50;99.90
33023;DHT22;19390;51.460;5.710;2024-02-15T08:37:41;12.50;99.90
33023;DHT22;19390;51.460;5.710;2024-02-15T08:40:10;12.50;99.90
33023;DHT22;19390;51.460;5.710;2024-02-15T08:42:45;12.60;99.90
33023;DHT22;19390;51.460;5.710;2024-02-15T08:45:14;12.50;99.90
33023;DHT22;19390;51.460;5.710;2024-02-15T08:47:40;12.60;99.90
33023;DHT22;19390;51.460;5.710;2024-02-15T08:50:07;12.60;99.90
33023;DHT22;19390;51.460;5.710;2024-02-15T08:52:39;12.70;99.90
33023;DHT22;19390;51.460;5.710;2024-02-15T08:55:09;12.80;99.90
33023;DHT22;19390;51.460;5.710;2024-02-15T08:57:36;12.70;99.90
33023;DHT22;19390;51.460;5.710;2024-02-15T09:00:03;12.70;99.90
33023;DHT22;19390;51.460;5.710;2024-02-15T09:02:42;12.50;99.90
33023;DHT22;19390;51.460;5.710;2024-02-15T09:05:08;12.60;99.90
33023;DHT22;19390;51.460;5.710;2024-02-15T09:07:34;12.50;99.90
33023;DHT22;19390;51.460;5.710;2024-02-15T09:10:02;12.50;99.90
33023;DHT22;19390;51.460;5.710;2024-02-15T09:12:28;12.60;99.90
33023;DHT22;19390;51.460;5.710;2024-02-15T09:14:53;12.60;99.90
33023;DHT22;19390;51.460;5.710;2024-02-15T09:17:19;12.50;99.90
33023;DHT22;19390;51.460;5.710;2024-02-15T09:19:47;12.50;99.90
33023;DHT22;19390;51.460;5.710;2024-02-15T09:22:15;12.50;99.90
33023;DHT22;19390;51.460;5.710;2024-02-15T09:24:40;12.60;99.90
33023;DHT22;19390;51.460;5.710;2024-02-15T09:27:07;12.60;99.90
33023;DHT22;19390;51.460;5.710;2024-02-15T09:29:33;12.60;99.90
33023;DHT22;19390;51.460;5.710;2024-02-15T09:31:59;12.60;99.90
33023;DHT22;19390;51.460;5.710;2024-02-15T09:34:27;12.60;99.90
33023;DHT22;19390;51.460;5.710;2024-02-15T09:36:53;12.60;99.90
33023;DHT22;19390;51.460;5.710;2024-02-15T09:39:19;12.70;99.90
33023;DHT22;19390;51.460;5.710;2024-02-15T09:41:44;12.80;99.90
33023;DHT22;19390;51.460;5.710;2024-02-15T09:44:10;12.80;99.90
33023;DHT22;19390;51.460;5.710;2024-02-15T09:46:38;12.80;99.90
33023;DHT22;19390;51.460;5.710;2024-02-15T09:49:07;12.80;99.90
33023;DHT22;19390;51.460;5.710;2024-02-15T09:51:33;12.90;99.90
33023;DHT22;19390;51.460;5.710;2024-02-15T09:53:59;12.90;99.90
33023;DHT22;19390;51.460;5.710;2024-02-15T09:56:26;13.00;99.90
33023;DHT22;19390;51.460;5.710;2024-02-15T09:58:54;13.00;99.90
33023;DHT22;19390;51.460;5.710;2024-02-15T10:01:21;13.10;99.90
33023;DHT22;19390;51.460;5.710;2024-02-15T10:03:49;13.10;99.90
33023;DHT22;19390;51.460;5.710;2024-02-15T10:06:19;13.20;99.90
33023;DHT22;19390;51.460;5.710;2024-02-15T10:08:45;13.20;99.90
33023;DHT22;19390;51.460;5.710;2024-02-15T10:11:12;13.20;99.90
33023;DHT22;19390;51.460;5.710;2024-02-15T10:13:38;13.30;99.90
33023;DHT22;19390;51.460;5.710;2024-02-15T10:16:15;13.30;99.90
33023;DHT22;19390;51.460;5.710;2024-02-15T10:18:41;13.40;99.90
33023;DHT22;19390;51.460;5.710;2024-02-15T10:21:07;13.40;99.90
33023;DHT22;19390;51.460;5.710;2024-02-15T10:23:32;13.40;99.90
33023;DHT22;19390;51.460;5.710;2024-02-15T10:25:58;13.40;99.90
33023;DHT22;19390;51.460;5.710;2024-02-15T10:28:24;13.40;99.90
33023;DHT22;19390;51.460;5.710;2024-02-15T10:30:50;13.20;99.90
33023;DHT22;19390;51.460;5.710;2024-02-15T10:33:28;13.20;99.90
33023;DHT22;19390;51.460;5.710;2024-02-15T10:36:08;13.20;99.90
33023;DHT22;19390;51.460;5.710;2024-02-15T10:38:34;13.20;99.90
33023;DHT22;19390;51.460;5.710;2024-02-15T10:41:07;13.20;99.90
33023;DHT22;19390;51.460;5.710;2024-02-15T10:43:37;13.30;99.90
33023;DHT22;19390;51.460;5.710;2024-02-15T10:46:05;13.30;99.90
33023;DHT22;19390;51.460;5.710;2024-02-15T10:48:35;13.40;99.90
33023;DHT22;19390;51.460;5.710;2024-02-15T10:51:03;13.40;99.90
33023;DHT22;19390;51.460;5.710;2024-02-15T10:53:33;13.40;99.90
33023;DHT22;19390;51.460;5.710;2024-02-15T10:58:33;13.60;99.90
33023;DHT22;19390;51.460;5.710;2024-02-15T11:01:06;13.70;99.90
33023;DHT22;19390;51.460;5.710;2024-02-15T11:03:35;13.80;99.90
33023;DHT22;19390;51.460;5.710;2024-02-15T11:06:02;13.90;99.90
33023;DHT22;19390;51.460;5.710;2024-02-15T11:08:32;14.00;99.90
33023;DHT22;19390;51.460;5.710;2024-02-15T11:10:58;14.00;99.90
33023;DHT22;19390;51.460;5.710;2024-02-15T11:13:24;14.10;99.90
33023;DHT22;19390;51.460;5.710;2024-02-15T11:15:50;14.20;99.90
33023;DHT22;19390;51.460;5.710;2024-02-15T11:18:42;14.30;99.90
33023;DHT22;19390;51.460;5.710;2024-02-15T11:21:12;14.40;99.90
33023;DHT22;19390;51.460;5.710;2024-02-15T11:23:38;14.40;99.90
33023;DHT22;19390;51.460;5.710;2024-02-15T11:26:04;14.50;99.90
33023;DHT22;19390;51.460;5.710;2024-02-15T11:30:56;14.60;99.90
33023;DHT22;19390;51.460;5.710;2024-02-15T11:33:32;14.60;99.90
33023;DHT22;19390;51.460;5.710;2024-02-15T11:36:11;14.60;99.90
33023;DHT22;19390;51.460;5.710;2024-02-15T11:38:38;14.60;99.90
33023;DHT22;19390;51.460;5.710;2024-02-15T11:41:07;14.60;99.90
33023;DHT22;19390;51.460;5.710;2024-02-15T11:46:28;14.60;99.90
33023;DHT22;19390;51.460;5.710;2024-02-15T11:48:56;14.80;99.90
33023;DHT22;19390;51.460;5.710;2024-02-15T11:51:32;15.00;99.90
33023;DHT22;19390;51.460;5.710;2024-02-15T11:54:10;15.30;99.90
33023;DHT22;19390;51.460;5.710;2024-02-15T11:56:56;15.30;99.90
33023;DHT22;19390;51.460;5.710;2024-02-15T11:59:42;15.40;99.90
33023;DHT22;19390;51.460;5.710;2024-02-15T12:02:20;15.40;99.90
33023;DHT22;19390;51.460;5.710;2024-02-15T12:05:05;15.50;99.90
33023;DHT22;19390;51.460;5.710;2024-02-15T12:07:49;15.60;99.90
33023;DHT22;19390;51.460;5.710;2024-02-15T12:10:33;15.80;99.90
33023;DHT22;19390;51.460;5.710;2024-02-15T12:13:18;15.60;99.90
33023;DHT22;19390;51.460;5.710;2024-02-15T12:16:03;15.60;99.90
33023;DHT22;19390;51.460;5.710;2024-02-15T12:18:48;15.60;99.90
33023;DHT22;19390;51.460;5.710;2024-02-15T12:21:23;15.50;99.90
33023;DHT22;19390;51.460;5.710;2024-02-15T12:23:50;15.60;99.90
33023;DHT22;19390;51.460;5.710;2024-02-15T12:26:21;15.70;99.90
33023;DHT22;19390;51.460;5.710;2024-02-15T12:28:52;15.70;99.90
33023;DHT22;19390;51.460;5.710;2024-02-15T12:31:25;15.90;99.90
33023;DHT22;19390;51.460;5.710;2024-02-15T12:34:03;16.00;99.90
33023;DHT22;19390;51.460;5.710;2024-02-15T12:36:36;16.00;99.90
33023;DHT22;19390;51.460;5.710;2024-02-15T12:39:04;16.00;99.90
33023;DHT22;19390;51.460;5.710;2024-02-15T12:41:38;16.10;99.90
33023;DHT22;19390;51.460;5.710;2024-02-15T12:44:06;16.20;99.90
33023;DHT22;19390;51.460;5.710;2024-02-15T12:46:34;16.20;99.90
33023;DHT22;19390;51.460;5.710;2024-02-15T12:49:13;16.20;99.90
33023;DHT22;19390;51.460;5.710;2024-02-15T12:51:50;16.10;99.90
33023;DHT22;19390;51.460;5.710;2024-02-15T12:54:20;16.30;99.90
33023;DHT22;19390;51.460;5.710;2024-02-15T12:56:49;16.20;99.90
33023;DHT22;19390;51.460;5.710;2024-02-15T12:59:18;16.20;99.90
33023;DHT22;19390;51.460;5.710;2024-02-15T13:01:45;16.10;99.90
33023;DHT22;19390;51.460;5.710;2024-02-15T13:04:24;16.20;99.90
33023;DHT22;19390;51.460;5.710;2024-02-15T13:06:54;16.50;99.90
33023;DHT22;19390;51.460;5.710;2024-02-15T13:09:19;16.60;99.90
33023;DHT22;19390;51.460;5.710;2024-02-15T13:11:47;16.70;99.90
33023;DHT22;19390;51.460;5.710;2024-02-15T13:14:15;16.60;99.90
33023;DHT22;19390;51.460;5.710;2024-02-15T13:16:40;16.50;99.90
33023;DHT22;19390;51.460;5.710;2024-02-15T13:19:08;16.60;99.90
33023;DHT22;19390;51.460;5.710;2024-02-15T13:21:34;16.70;99.90
33023;DHT22;19390;51.460;5.710;2024-02-15T13:24:00;16.80;99.90
33023;DHT22;19390;51.460;5.710;2024-02-15T13:26:30;16.90;99.90
33023;DHT22;19390;51.460;5.710;2024-02-15T13:28:56;17.00;99.90
33023;DHT22;19390;51.460;5.710;2024-02-15T13:31:21;17.30;99.90
33023;DHT22;19390;51.460;5.710;2024-02-15T13:33:48;18.40;99.90
33023;DHT22;19390;51.460;5.710;2024-02-15T13:36:13;18.70;99.90
33023;DHT22;19390;51.460;5.710;2024-02-15T13:38:41;18.50;99.90
33023;DHT22;19390;51.460;5.710;2024-02-15T13:41:07;18.20;99.90
33023;DHT22;19390;51.460;5.710;2024-02-15T13:43:34;18.20;99.90
33023;DHT22;19390;51.460;5.710;2024-02-15T13:46:00;18.00;99.90
33023;DHT22;19390;51.460;5.710;2024-02-15T13:48:30;18.50;99.90
33023;DHT22;19390;51.460;5.710;2024-02-15T13:50:55;18.50;99.90
33023;DHT22;19390;51.460;5.710;2024-02-15T13:53:21;18.60;99.90
33023;DHT22;19390;51.460;5.710;2024-02-15T13:55:47;18.80;99.90
33023;DHT22;19390;51.460;5.710;2024-02-15T13:58:13;18.70;99.90
33023;DHT22;19390;51.460;5.710;2024-02-15T14:00:40;18.60;99.90
33023;DHT22;19390;51.460;5.710;2024-02-15T14:03:08;18.40;99.90
33023;DHT22;19390;51.460;5.710;2024-02-15T14:05:35;18.20;99.90
33023;DHT22;19390;51.460;5.710;2024-02-15T14:08:05;18.00;99.90
33023;DHT22;19390;51.460;5.710;2024-02-15T14:10:32;17.80;99.90
33023;DHT22;19390;51.460;5.710;2024-02-15T14:13:00;17.10;99.90
33023;DHT22;19390;51.460;5.710;2024-02-15T14:15:29;16.80;99.90
33023;DHT22;19390;51.460;5.710;2024-02-15T14:17:55;16.50;99.90
33023;DHT22;19390;51.460;5.710;2024-02-15T14:20:21;16.40;99.90
33023;DHT22;19390;51.460;5.710;2024-02-15T14:22:48;16.50;99.90
33023;DHT22;19390;51.460;5.710;2024-02-15T14:25:25;16.60;99.90
33023;DHT22;19390;51.460;5.710;2024-02-15T14:27:54;16.70;99.90
33023;DHT22;19390;51.460;5.710;2024-02-15T14:30:21;16.70;99.90
33023;DHT22;19390;51.460;5.710;2024-02-15T14:33:05;16.70;99.90
33023;DHT22;19390;51.460;5.710;2024-02-15T14:35:34;16.80;99.90
33023;DHT22;19390;51.460;5.710;2024-02-15T14:38:09;16.90;99.90
33023;DHT22;19390;51.460;5.710;2024-02-15T14:40:37;16.90;99.90
33023;DHT22;19390;51.460;5.710;2024-02-15T14:43:03;17.00;99.90
33023;DHT22;19390;51.460;5.710;2024-02-15T14:45:32;16.90;99.90
33023;DHT22;19390;51.460;5.710;2024-02-15T14:48:00;16.80;99.90
33023;DHT22;19390;51.460;5.710;2024-02-15T14:50:25;16.80;99.90
33023;DHT22;19390;51.460;5.710;2024-02-15T14:52:52;16.70;99.90
33023;DHT22;19390;51.460;5.710;2024-02-15T14:55:19;16.70;99.90
33023;DHT22;19390;51.460;5.710;2024-02-15T14:57:45;16.60;99.90
33023;DHT22;19390;51.460;5.710;2024-02-15T15:00:11;16.60;99.90
33023;DHT22;19390;51.460;5.710;2024-02-15T15:02:46;16.50;99.90
33023;DHT22;19390;51.460;5.710;2024-02-15T15:05:13;16.40;99.90
33023;DHT22;19390;51.460;5.710;2024-02-15T15:07:57;16.40;99.90
33023;DHT22;19390;51.460;5.710;2024-02-15T15:10:41;16.40;99.90
33023;DHT22;19390;51.460;5.710;2024-02-15T15:13:26;16.30;99.90
33023;DHT22;19390;51.460;5.710;2024-02-15T15:15:52;16.30;99.90
33023;DHT22;19390;51.460;5.710;2024-02-15T15:18:17;16.30;99.90
33023;DHT22;19390;51.460;5.710;2024-02-15T15:20:44;16.30;99.90
33023;DHT22;19390;51.460;5.710;2024-02-15T15:23:09;16.30;99.90
33023;DHT22;19390;51.460;5.710;2024-02-15T15:25:35;16.20;99.90
33023;DHT22;19390;51.460;5.710;2024-02-15T15:28:03;16.20;99.90
33023;DHT22;19390;51.460;5.710;2024-02-15T15:30:30;16.20;99.90
33023;DHT22;19390;51.460;5.710;2024-02-15T15:32:56;16.20;99.90
33023;DHT22;19390;51.460;5.710;2024-02-15T15:35:22;16.30;99.90
33023;DHT22;19390;51.460;5.710;2024-02-15T15:37:49;16.40;99.90
33023;DHT22;19390;51.460;5.710;2024-02-15T15:40:17;16.50;99.90
33023;DHT22;19390;51.460;5.710;2024-02-15T15:42:43;16.50;99.90
33023;DHT22;19390;51.460;5.710;2024-02-15T15:45:09;16.70;99.90